createdAt,value
2023-05-11T00:01:08.854Z,1.20
2023-05-11T00:04:10.926Z,1.10
2023-05-11T00:07:12.947Z,1.40
2023-05-11T00:10:15.148Z,1.20
2023-05-11T00:13:17.558Z,1.20
2023-05-11T00:16:19.481Z,1.10
2023-05-11T00:19:21.391Z,1.23
2023-05-11T00:22:23.282Z,1.10
2023-05-11T00:25:25.357Z,1.20
2023-05-11T00:28:27.199Z,1.07
2023-05-11T00:31:30.444Z,1.20
2023-05-11T00:34:32.731Z,1.17
2023-05-11T00:37:34.560Z,1.30
2023-05-11T00:40:36.367Z,1.10
2023-05-11T00:43:38.276Z,1.10
2023-05-11T00:46:40.277Z,1.20
2023-05-11T00:49:42.431Z,1.00
2023-05-11T00:52:45.396Z,1.10
2023-05-11T00:55:47.475Z,1.10
2023-05-11T00:58:49.447Z,1.30
2023-05-11T01:01:51.524Z,1.20
2023-05-11T01:04:53.465Z,1.17
2023-05-11T01:08:05.638Z,1.17
2023-05-11T01:11:17.980Z,1.10
2023-05-11T01:14:42.072Z,1.30
2023-05-11T01:18:09.867Z,1.23
2023-05-11T01:21:15.982Z,1.25
2023-05-11T01:24:34.037Z,1.20
2023-05-11T01:28:09.772Z,1.23
2023-05-11T01:31:13.720Z,1.13
2023-05-11T01:34:25.179Z,1.15
2023-05-11T01:37:31.624Z,1.38
2023-05-11T01:40:36.265Z,1.30
2023-05-11T01:43:40.974Z,1.20
2023-05-11T01:46:43.077Z,2.75
2023-05-11T01:49:45.963Z,3.60
2023-05-11T01:52:50.660Z,3.03
2023-05-11T01:55:55.561Z,1.50
2023-05-11T01:58:59.860Z,1.73
2023-05-11T02:02:03.810Z,2.30
2023-05-11T02:05:07.111Z,1.70
2023-05-11T02:08:10.317Z,1.48
2023-05-11T02:11:14.774Z,1.23
2023-05-11T02:14:19.340Z,1.00
2023-05-11T02:17:22.979Z,0.80
2023-05-11T02:20:26.027Z,0.90
2023-05-11T02:26:30.134Z,0.95
2023-05-11T02:29:32.599Z,0.90
2023-05-11T02:32:38.234Z,0.82
2023-05-11T02:35:44.122Z,0.90
2023-05-11T02:38:48.023Z,1.08
2023-05-11T02:41:57.250Z,1.10
2023-05-11T02:45:07.480Z,1.10
2023-05-11T02:48:17.327Z,1.10
2023-05-11T02:51:24.556Z,1.20
2023-05-11T02:54:28.323Z,1.30
2023-05-11T02:57:31.170Z,1.05
2023-05-11T03:00:39.378Z,1.02
2023-05-11T03:03:41.575Z,1.20
2023-05-11T03:06:43.685Z,1.80
2023-05-11T03:09:45.872Z,2.40
2023-05-11T03:12:47.860Z,1.30
2023-05-11T03:15:52.888Z,1.33
2023-05-11T03:18:56.012Z,1.35
2023-05-11T03:21:59.952Z,1.73
2023-05-11T03:25:04.042Z,1.40
2023-05-11T03:28:07.360Z,1.45
2023-05-11T03:31:10.127Z,1.33
2023-05-11T03:34:12.230Z,1.20
2023-05-11T03:37:19.277Z,1.00
2023-05-11T03:40:24.027Z,1.10
2023-05-11T03:43:32.201Z,0.80
2023-05-11T03:46:38.116Z,0.93
2023-05-11T03:49:43.411Z,0.88
2023-05-11T03:52:45.474Z,0.93
2023-05-11T03:55:47.482Z,1.00
2023-05-11T03:58:49.755Z,0.90
2023-05-11T04:01:53.263Z,0.88
2023-05-11T04:04:55.127Z,0.80
2023-05-11T04:07:57.141Z,0.98
2023-05-11T04:10:59.657Z,0.98
2023-05-11T04:14:01.700Z,1.20
2023-05-11T04:17:03.574Z,1.17
2023-05-11T04:20:06.071Z,1.05
2023-05-11T04:23:10.213Z,0.93
2023-05-11T04:26:12.391Z,0.98
2023-05-11T04:29:14.269Z,1.00
2023-05-11T04:32:16.623Z,1.17
2023-05-11T04:35:18.752Z,1.08
2023-05-11T04:38:21.814Z,1.13
2023-05-11T04:41:24.119Z,1.00
2023-05-11T04:44:27.103Z,1.20
2023-05-11T04:47:29.240Z,1.30
2023-05-11T04:50:32.535Z,1.10
2023-05-11T04:53:35.432Z,1.05
2023-05-11T04:56:41.110Z,1.00
2023-05-11T04:59:43.786Z,1.27
2023-05-11T05:02:46.438Z,1.02
2023-05-11T05:05:48.392Z,1.00
2023-05-11T05:08:50.306Z,1.00
2023-05-11T05:11:52.207Z,0.90
2023-05-11T05:14:54.150Z,0.83
2023-05-11T05:17:56.164Z,1.00
2023-05-11T05:20:58.396Z,1.00
2023-05-11T05:24:00.377Z,0.90
2023-05-11T05:27:02.256Z,0.90
2023-05-11T05:30:05.239Z,1.10
2023-05-11T05:33:07.429Z,0.93
2023-05-11T05:36:10.715Z,1.00
2023-05-11T05:39:12.798Z,0.88
2023-05-11T05:42:16.007Z,0.80
2023-05-11T05:45:18.958Z,0.90
2023-05-11T05:48:21.242Z,1.00
2023-05-11T05:51:23.630Z,0.85
2023-05-11T05:54:25.678Z,0.88
2023-05-11T05:57:30.823Z,0.93
2023-05-11T06:00:33.241Z,0.82
2023-05-11T06:03:40.399Z,1.00
2023-05-11T06:06:42.716Z,0.80
2023-05-11T06:09:44.572Z,0.90
2023-05-11T06:12:46.423Z,0.80
2023-05-11T06:15:48.690Z,0.80
2023-05-11T06:18:59.208Z,0.95
2023-05-11T06:22:03.169Z,0.77
2023-05-11T06:25:08.761Z,0.73
2023-05-11T06:28:10.977Z,0.80
2023-05-11T06:31:13.794Z,0.60
2023-05-11T06:34:17.739Z,0.77
2023-05-11T06:37:22.268Z,0.88
2023-05-11T06:40:26.125Z,1.20
2023-05-11T06:43:28.025Z,1.40
2023-05-11T06:46:30.025Z,1.38
2023-05-11T06:49:31.949Z,0.80
2023-05-11T06:52:33.803Z,1.07
2023-05-11T06:55:36.333Z,1.10
2023-05-11T06:58:38.317Z,0.85
2023-05-11T07:01:40.253Z,4.10
2023-05-11T07:04:42.290Z,1.10
2023-05-11T07:07:44.127Z,0.90
2023-05-11T07:10:46.196Z,0.97
2023-05-11T07:13:48.279Z,0.80
2023-05-11T07:16:53.021Z,1.00
2023-05-11T07:19:55.600Z,1.80
2023-05-11T07:22:59.353Z,1.70
2023-05-11T07:26:03.936Z,1.92
2023-05-11T07:29:05.815Z,1.30
2023-05-11T07:32:07.871Z,1.33
2023-05-11T07:35:09.823Z,1.95
2023-05-11T07:38:13.512Z,0.98
2023-05-11T07:41:15.553Z,1.27
2023-05-11T07:44:17.600Z,1.40
2023-05-11T07:47:21.034Z,1.08
2023-05-11T07:50:24.465Z,1.20
2023-05-11T07:53:26.673Z,0.77
2023-05-11T07:56:28.589Z,1.00
2023-05-11T07:59:30.554Z,1.10
2023-05-11T08:02:32.594Z,0.90
2023-05-11T08:05:37.572Z,1.15
2023-05-11T08:08:39.465Z,1.40
2023-05-11T08:11:42.154Z,1.10
2023-05-11T08:14:44.084Z,1.17
2023-05-11T08:17:46.454Z,0.70
2023-05-11T08:20:48.541Z,0.73
2023-05-11T08:23:50.362Z,0.93
2023-05-11T08:26:52.251Z,1.40
2023-05-11T08:29:55.477Z,1.15
2023-05-11T08:32:59.269Z,0.80
2023-05-11T08:36:01.745Z,1.00
2023-05-11T08:39:03.873Z,0.77
2023-05-11T08:42:07.282Z,0.90
2023-05-11T08:45:11.593Z,0.90
2023-05-11T08:48:15.549Z,2.17
2023-05-11T08:51:17.476Z,2.63
2023-05-11T08:54:19.377Z,1.27
2023-05-11T08:57:21.875Z,1.20
2023-05-11T09:03:28.869Z,1.20
2023-05-11T09:06:31.403Z,0.80
2023-05-11T09:12:41.660Z,1.10
2023-05-11T09:15:43.543Z,0.85
2023-05-11T09:18:49.768Z,1.00
2023-05-11T09:21:54.634Z,1.10
2023-05-11T09:24:56.724Z,0.90
2023-05-11T09:28:00.033Z,1.00
2023-05-11T09:31:02.085Z,0.93
2023-05-11T09:34:10.432Z,0.80
2023-05-11T09:37:19.360Z,0.75
2023-05-11T09:40:27.297Z,0.70
2023-05-11T09:43:31.326Z,0.90
2023-05-11T09:46:33.220Z,0.80
2023-05-11T09:49:35.134Z,1.00
2023-05-11T09:52:51.637Z,0.95
2023-05-11T09:55:55.712Z,0.90
2023-05-11T09:58:58.441Z,0.75
2023-05-11T10:02:25.222Z,0.77
2023-05-11T10:05:27.537Z,1.30
2023-05-11T10:08:31.407Z,1.00
2023-05-11T10:11:33.344Z,0.90
2023-05-11T10:14:39.318Z,0.80
2023-05-11T10:17:44.782Z,1.00
2023-05-11T10:20:47.257Z,1.00
2023-05-11T10:23:49.537Z,0.80
2023-05-11T10:26:52.413Z,1.00
2023-05-11T10:29:54.364Z,0.98
2023-05-11T10:32:57.629Z,1.00
2023-05-11T10:36:00.111Z,0.90
2023-05-11T10:42:18.938Z,0.90
2023-05-11T10:45:29.883Z,0.90
2023-05-11T10:48:57.622Z,1.00
2023-05-11T10:52:31.665Z,0.90
2023-05-11T10:55:36.048Z,0.90
2023-05-11T10:58:59.954Z,0.85
2023-05-11T11:02:04.144Z,0.80
2023-05-11T11:05:10.611Z,0.80
2023-05-11T11:08:12.849Z,0.90
2023-05-11T11:11:39.124Z,1.00
2023-05-11T11:14:55.840Z,0.60
2023-05-11T11:18:27.584Z,0.90
2023-05-11T11:21:42.806Z,0.88
2023-05-11T11:24:46.368Z,0.93
2023-05-11T11:27:50.931Z,0.73
2023-05-11T11:31:26.263Z,1.23
2023-05-11T11:34:28.246Z,1.35
2023-05-11T11:37:30.228Z,1.30
2023-05-11T11:40:50.783Z,1.23
2023-05-11T11:43:55.454Z,1.10
2023-05-11T11:47:20.588Z,1.02
2023-05-11T11:50:28.414Z,1.13
2023-05-11T11:53:36.489Z,1.13
2023-05-11T11:56:40.131Z,1.15
2023-05-11T11:59:48.461Z,1.08
2023-05-11T12:02:50.481Z,1.10
2023-05-11T12:05:55.802Z,0.90
2023-05-11T12:08:57.857Z,1.13
2023-05-11T12:12:00.548Z,1.30
2023-05-11T12:15:04.104Z,1.42
2023-05-11T12:18:08.854Z,0.90
2023-05-11T12:21:24.638Z,1.00
2023-05-11T12:24:26.807Z,1.30
2023-05-11T12:27:28.713Z,1.65
2023-05-11T12:30:33.022Z,1.80
2023-05-11T12:33:47.978Z,1.50
2023-05-11T12:37:07.416Z,1.55
2023-05-11T12:40:13.027Z,1.20
2023-05-11T12:43:19.350Z,1.05
2023-05-11T12:46:22.708Z,0.90
2023-05-11T12:49:26.694Z,0.90
2023-05-11T12:52:28.974Z,1.08
2023-05-11T12:55:31.163Z,1.38
2023-05-11T12:58:40.552Z,1.15
2023-05-11T13:01:42.498Z,1.10
2023-05-11T13:04:45.548Z,1.00
2023-05-11T13:07:48.644Z,0.90
2023-05-11T13:10:50.546Z,1.05
2023-05-11T13:13:54.164Z,1.00
2023-05-11T13:16:56.323Z,0.93
2023-05-11T13:20:17.238Z,1.00
2023-05-11T13:23:21.898Z,0.80
2023-05-11T13:26:29.257Z,0.63
2023-05-11T13:29:31.388Z,0.90
2023-05-11T13:32:33.420Z,1.05
2023-05-11T13:35:42.080Z,1.23
2023-05-11T13:38:43.920Z,1.23
2023-05-11T13:41:46.014Z,0.80
2023-05-11T13:44:47.979Z,1.08
2023-05-11T13:47:49.932Z,0.90
2023-05-11T13:50:52.213Z,0.90
2023-05-11T13:53:54.582Z,0.88
2023-05-11T13:56:56.923Z,0.95
2023-05-11T13:59:58.823Z,0.77
2023-05-11T14:03:00.818Z,1.15
2023-05-11T14:06:03.241Z,2.10
2023-05-11T14:09:05.087Z,1.73
2023-05-11T14:12:07.205Z,1.35
2023-05-11T14:15:09.703Z,1.13
2023-05-11T14:21:13.672Z,0.85
2023-05-11T14:24:15.591Z,1.05
2023-05-11T14:27:17.526Z,0.77
2023-05-11T14:30:19.391Z,0.80
2023-05-11T14:33:21.238Z,0.70
2023-05-11T14:36:23.343Z,0.80
2023-05-11T14:39:25.238Z,1.10
2023-05-11T14:42:27.336Z,1.40
2023-05-11T14:45:29.257Z,1.58
2023-05-11T14:48:31.216Z,0.82
2023-05-11T14:51:33.190Z,0.90
2023-05-11T14:54:35.390Z,2.10
2023-05-11T14:57:38.368Z,1.45
2023-05-11T15:00:40.506Z,1.17
2023-05-11T15:03:42.429Z,0.80
2023-05-11T15:06:44.411Z,0.98
2023-05-11T15:09:46.290Z,1.13
2023-05-11T15:12:48.272Z,0.90
2023-05-11T15:15:50.234Z,0.90
2023-05-11T15:18:52.185Z,0.82
2023-05-11T15:21:54.280Z,1.00
2023-05-11T15:24:56.202Z,1.02
2023-05-11T15:27:58.209Z,0.90
2023-05-11T15:31:00.069Z,1.10
2023-05-11T15:34:02.156Z,1.00
2023-05-11T15:37:04.163Z,1.00
2023-05-11T15:40:08.571Z,1.50
2023-05-11T15:43:10.434Z,1.40
2023-05-11T15:46:12.417Z,1.00
2023-05-11T15:49:14.398Z,1.00
2023-05-11T15:52:16.394Z,0.90
2023-05-11T15:55:18.308Z,1.90
2023-05-11T15:58:20.242Z,13.18
2023-05-11T16:01:22.345Z,16.50
2023-05-11T16:04:24.606Z,42.47
2023-05-11T16:07:27.305Z,41.13
2023-05-11T16:10:29.243Z,16.98
2023-05-11T16:13:31.227Z,6.03
2023-05-11T16:16:33.391Z,3.03
2023-05-11T16:19:35.285Z,1.33
2023-05-11T16:22:38.887Z,1.42
2023-05-11T16:25:40.823Z,1.92
2023-05-11T16:28:43.313Z,2.45
2023-05-11T16:31:45.140Z,4.55
2023-05-11T16:34:47.335Z,3.13
2023-05-11T16:37:49.209Z,3.67
2023-05-11T16:40:51.316Z,2.70
2023-05-11T16:43:53.233Z,1.83
2023-05-11T16:46:55.257Z,1.20
2023-05-11T16:49:57.426Z,1.23
2023-05-11T16:52:59.876Z,1.20
2023-05-11T16:56:01.943Z,1.63
2023-05-11T16:59:04.492Z,3.90
2023-05-11T17:02:07.527Z,4.28
2023-05-11T17:05:11.527Z,4.93
2023-05-11T17:08:13.484Z,4.70
2023-05-11T17:11:15.390Z,4.65
2023-05-11T17:14:17.371Z,5.18
2023-05-11T17:17:19.297Z,5.85
2023-05-11T17:20:21.384Z,5.30
2023-05-11T17:23:24.999Z,4.00
2023-05-11T17:26:35.412Z,3.45
2023-05-11T17:29:45.798Z,3.88
2023-05-11T17:32:47.899Z,4.57
2023-05-11T17:35:50.807Z,4.50
2023-05-11T17:38:53.629Z,4.47
2023-05-11T17:44:57.403Z,8.48
2023-05-11T17:47:59.285Z,10.13
2023-05-11T17:51:01.335Z,8.60
2023-05-11T17:54:03.502Z,9.52
2023-05-11T17:57:05.678Z,8.38
2023-05-11T18:00:09.990Z,7.20
2023-05-11T18:03:12.478Z,8.27
2023-05-11T18:06:14.771Z,10.73
2023-05-11T18:09:18.902Z,9.73
2023-05-11T18:12:20.819Z,9.07
2023-05-11T18:15:22.939Z,9.47
2023-05-11T18:18:25.051Z,9.60
2023-05-11T18:21:27.744Z,9.95
2023-05-11T18:24:29.658Z,10.48
2023-05-11T18:27:31.604Z,13.00
2023-05-11T18:30:34.897Z,15.60
2023-05-11T18:33:36.914Z,16.48
2023-05-11T18:36:38.865Z,20.13
2023-05-11T18:39:41.039Z,22.47
2023-05-11T18:42:42.928Z,22.40
2023-05-11T18:45:46.528Z,21.17
2023-05-11T18:48:52.970Z,19.02
2023-05-11T18:51:55.738Z,18.90
2023-05-11T18:54:58.363Z,17.63
2023-05-11T18:58:01.648Z,15.40
2023-05-11T19:01:04.006Z,18.65
2023-05-11T19:04:07.151Z,19.15
2023-05-11T19:07:09.047Z,17.60
2023-05-11T19:10:11.123Z,15.57
2023-05-11T19:13:13.353Z,13.80
2023-05-11T19:16:15.300Z,14.00
2023-05-11T19:19:17.206Z,11.97
2023-05-11T19:22:21.346Z,10.98
2023-05-11T19:25:23.230Z,12.02
2023-05-11T19:28:25.485Z,11.10
2023-05-11T19:31:31.591Z,10.75
2023-05-11T19:34:33.731Z,11.02
2023-05-11T19:37:35.602Z,10.43
2023-05-11T19:40:45.810Z,9.65
2023-05-11T19:43:48.327Z,9.82
2023-05-11T19:46:50.179Z,9.30
2023-05-11T19:49:52.359Z,9.85
2023-05-11T19:52:54.695Z,9.95
2023-05-11T19:55:56.951Z,9.23
2023-05-11T19:58:59.162Z,6.30
2023-05-11T20:02:02.438Z,7.25
2023-05-11T20:05:04.678Z,7.43
2023-05-11T20:08:06.581Z,6.93
2023-05-11T20:11:08.523Z,7.43
2023-05-11T20:14:10.430Z,7.47
2023-05-11T20:17:12.340Z,7.40
2023-05-11T20:20:14.278Z,7.93
2023-05-11T20:23:16.174Z,7.15
2023-05-11T20:26:18.143Z,6.72
2023-05-11T20:29:20.021Z,7.53
2023-05-11T20:32:21.953Z,7.65
2023-05-11T20:35:25.272Z,6.22
2023-05-11T20:38:27.244Z,5.40
2023-05-11T20:41:30.015Z,5.13
2023-05-11T20:44:32.043Z,5.28
2023-05-11T20:47:34.586Z,6.70
2023-05-11T20:50:36.554Z,6.97
2023-05-11T20:53:38.469Z,8.32
2023-05-11T20:56:40.399Z,9.48
2023-05-11T21:02:47.122Z,7.28
2023-05-11T21:05:49.149Z,6.95
2023-05-11T21:08:51.146Z,7.40
2023-05-11T21:11:53.034Z,7.87
2023-05-11T21:14:56.879Z,7.40
2023-05-11T21:17:59.166Z,7.40
2023-05-11T21:21:01.749Z,6.43
2023-05-11T21:24:04.272Z,6.72
2023-05-11T21:27:06.552Z,6.22
2023-05-11T21:30:09.358Z,6.15
2023-05-11T21:33:12.005Z,5.80
2023-05-11T21:36:14.038Z,5.72
2023-05-11T21:39:15.955Z,5.93
2023-05-11T21:42:17.869Z,5.82
2023-05-11T21:45:19.952Z,5.05
2023-05-11T21:48:22.272Z,4.60
2023-05-11T21:51:24.163Z,4.65
2023-05-11T21:54:26.026Z,4.57
2023-05-11T21:57:27.889Z,5.13
2023-05-11T22:00:29.721Z,5.20
2023-05-11T22:03:31.789Z,4.47
2023-05-11T22:06:33.796Z,4.38
2023-05-11T22:09:36.297Z,5.10
2023-05-11T22:12:39.092Z,4.93
2023-05-11T22:15:41.523Z,4.72
2023-05-11T22:18:43.458Z,4.22
2023-05-11T22:21:45.364Z,4.32
2023-05-11T22:24:47.244Z,4.32
2023-05-11T22:27:49.266Z,3.38
2023-05-11T22:30:51.116Z,3.53
2023-05-11T22:33:53.026Z,3.10
2023-05-11T22:36:54.869Z,3.45
2023-05-11T22:39:56.884Z,2.75
2023-05-11T22:42:58.673Z,2.75
2023-05-11T22:46:00.642Z,3.08
2023-05-11T22:49:02.693Z,2.93
2023-05-11T22:52:05.372Z,3.43
2023-05-11T22:55:07.690Z,3.20
2023-05-11T22:58:09.609Z,2.70
2023-05-11T23:01:12.470Z,3.00
2023-05-11T23:04:15.066Z,2.42
2023-05-11T23:07:16.998Z,3.00
2023-05-11T23:10:19.094Z,2.15
2023-05-11T23:13:21.204Z,2.30
2023-05-11T23:16:24.279Z,2.60
2023-05-11T23:22:28.046Z,2.28
2023-05-11T23:25:29.990Z,2.22
2023-05-11T23:28:31.819Z,2.10
2023-05-11T23:31:34.432Z,1.90
2023-05-11T23:34:38.101Z,2.25
2023-05-11T23:37:39.907Z,2.25
2023-05-11T23:40:42.807Z,2.03
2023-05-11T23:43:44.668Z,2.17
2023-05-11T23:46:46.493Z,1.92
2023-05-11T23:49:48.355Z,2.20
2023-05-11T23:52:50.244Z,1.92
2023-05-11T23:55:52.081Z,2.30
2023-05-11T23:58:54.459Z,2.00
